sensor_id;sensor_type;location;lat;lon;timestamp;P1;durP1;ratioP1;P2;durP2;ratioP2
78824;SDS011;68176;45.554;10.220;2023-05-17T05:22:30;2.75;;;1.67;;
78824;SDS011;68176;45.554;10.220;2023-05-17T05:24:56;2.60;;;1.10;;
78824;SDS011;68176;45.554;10.220;2023-05-17T05:27:24;3.53;;;1.90;;
78824;SDS011;68176;45.554;10.220;2023-05-17T05:29:54;3.90;;;2.78;;
78824;SDS011;68176;45.554;10.220;2023-05-17T05:34:54;4.85;;;1.92;;
78824;SDS011;68176;45.554;10.220;2023-05-17T05:37:24;4.25;;;2.17;;
78824;SDS011;68176;45.554;10.220;2023-05-17T05:39:55;3.25;;;1.85;;
78824;SDS011;68176;45.554;10.220;2023-05-17T05:42:27;3.08;;;1.98;;
78824;SDS011;68176;45.554;10.220;2023-05-17T05:44:55;2.23;;;1.60;;
78824;SDS011;68176;45.554;10.220;2023-05-17T05:47:25;6.15;;;2.08;;
78824;SDS011;68176;45.554;10.220;2023-05-17T05:52:24;2.42;;;1.50;;
78824;SDS011;68176;45.554;10.220;2023-05-17T05:54:55;3.78;;;2.70;;
78824;SDS011;68176;45.554;10.220;2023-05-17T05:57:27;2.30;;;1.92;;
78824;SDS011;68176;45.554;10.220;2023-05-17T05:59:57;2.90;;;1.65;;
78824;SDS011;68176;45.554;10.220;2023-05-17T06:02:24;2.80;;;1.90;;
78824;SDS011;68176;45.554;10.220;2023-05-17T06:04:55;3.72;;;2.00;;
78824;SDS011;68176;45.554;10.220;2023-05-17T06:09:58;3.13;;;1.80;;
78824;SDS011;68176;45.554;10.220;2023-05-17T06:12:27;3.55;;;2.22;;
78824;SDS011;68176;45.554;10.220;2023-05-17T06:14:58;2.90;;;1.87;;
78824;SDS011;68176;45.554;10.220;2023-05-17T06:17:36;3.25;;;1.63;;
78824;SDS011;68176;45.554;10.220;2023-05-17T06:20:02;2.92;;;1.65;;
78824;SDS011;68176;45.554;10.220;2023-05-17T06:22:27;0.60;;;0.20;;
78824;SDS011;68176;45.554;10.220;2023-05-17T06:24:56;4.45;;;2.45;;
78824;SDS011;68176;45.554;10.220;2023-05-17T06:27:26;2.92;;;1.52;;
78824;SDS011;68176;45.554;10.220;2023-05-17T06:32:26;5.20;;;2.00;;
78824;SDS011;68176;45.554;10.220;2023-05-17T06:34:56;2.85;;;1.88;;
78824;SDS011;68176;45.554;10.220;2023-05-17T06:37:26;2.75;;;1.63;;
78824;SDS011;68176;45.554;10.220;2023-05-17T06:42:31;2.30;;;1.00;;
78824;SDS011;68176;45.554;10.220;2023-05-17T06:45:00;2.80;;;1.85;;
78824;SDS011;68176;45.554;10.220;2023-05-17T06:47:26;3.40;;;1.52;;
78824;SDS011;68176;45.554;10.220;2023-05-17T06:49:56;3.95;;;2.13;;
78824;SDS011;68176;45.554;10.220;2023-05-17T06:52:29;2.00;;;1.42;;
78824;SDS011;68176;45.554;10.220;2023-05-17T06:55:00;2.15;;;1.85;;
78824;SDS011;68176;45.554;10.220;2023-05-17T07:00:02;3.55;;;1.77;;
78824;SDS011;68176;45.554;10.220;2023-05-17T08:53:29;4.22;;;1.92;;
78824;SDS011;68176;45.554;10.220;2023-05-17T09:52:25;2.63;;;1.87;;
78824;SDS011;68176;45.554;10.220;2023-05-17T09:54:57;5.87;;;4.53;;
78824;SDS011;68176;45.554;10.220;2023-05-17T09:57:25;11.50;;;9.80;;
78824;SDS011;68176;45.554;10.220;2023-05-17T09:59:56;7.37;;;5.20;;
78824;SDS011;68176;45.554;10.220;2023-05-17T10:02:31;7.40;;;5.90;;
78824;SDS011;68176;45.554;10.220;2023-05-17T10:05:01;7.45;;;4.65;;
78824;SDS011;68176;45.554;10.220;2023-05-17T10:07:31;10.63;;;6.20;;
78824;SDS011;68176;45.554;10.220;2023-05-17T10:09:59;5.90;;;5.40;;
78824;SDS011;68176;45.554;10.220;2023-05-17T10:12:28;6.25;;;4.30;;
78824;SDS011;68176;45.554;10.220;2023-05-17T10:14:59;7.20;;;5.10;;
78824;SDS011;68176;45.554;10.220;2023-05-17T10:17:29;7.00;;;4.80;;
78824;SDS011;68176;45.554;10.220;2023-05-17T10:19:56;6.15;;;4.50;;
78824;SDS011;68176;45.554;10.220;2023-05-17T10:22:25;8.13;;;6.10;;
78824;SDS011;68176;45.554;10.220;2023-05-17T10:24:55;12.25;;;5.32;;
78824;SDS011;68176;45.554;10.220;2023-05-17T10:27:26;12.15;;;7.00;;
78824;SDS011;68176;45.554;10.220;2023-05-17T10:30:06;8.82;;;5.88;;
78824;SDS011;68176;45.554;10.220;2023-05-17T10:33:05;7.47;;;5.27;;
78824;SDS011;68176;45.554;10.220;2023-05-17T10:35:32;9.30;;;7.60;;
78824;SDS011;68176;45.554;10.220;2023-05-17T10:38:01;8.50;;;5.57;;
78824;SDS011;68176;45.554;10.220;2023-05-17T10:40:29;9.63;;;6.38;;
78824;SDS011;68176;45.554;10.220;2023-05-17T10:42:59;10.13;;;6.72;;
78824;SDS011;68176;45.554;10.220;2023-05-17T10:45:29;8.73;;;6.85;;
78824;SDS011;68176;45.554;10.220;2023-05-17T10:47:59;9.75;;;6.65;;
78824;SDS011;68176;45.554;10.220;2023-05-17T10:50:29;7.40;;;5.33;;
78824;SDS011;68176;45.554;10.220;2023-05-17T10:52:59;9.48;;;7.28;;
78824;SDS011;68176;45.554;10.220;2023-05-17T10:55:42;8.75;;;6.30;;
78824;SDS011;68176;45.554;10.220;2023-05-17T10:58:12;8.05;;;5.60;;
78824;SDS011;68176;45.554;10.220;2023-05-17T11:00:43;10.27;;;5.57;;
78824;SDS011;68176;45.554;10.220;2023-05-17T11:03:17;6.50;;;5.00;;
78824;SDS011;68176;45.554;10.220;2023-05-17T11:05:44;6.43;;;4.30;;
78824;SDS011;68176;45.554;10.220;2023-05-17T11:08:35;8.18;;;6.10;;
78824;SDS011;68176;45.554;10.220;2023-05-17T11:13:50;7.70;;;6.60;;
78824;SDS011;68176;45.554;10.220;2023-05-17T11:16:20;7.10;;;5.75;;
78824;SDS011;68176;45.554;10.220;2023-05-17T11:18:50;8.07;;;6.27;;
78824;SDS011;68176;45.554;10.220;2023-05-17T11:21:17;9.40;;;6.95;;
78824;SDS011;68176;45.554;10.220;2023-05-17T11:23:44;8.00;;;5.20;;
78824;SDS011;68176;45.554;10.220;2023-05-17T11:26:28;13.33;;;7.47;;
78824;SDS011;68176;45.554;10.220;2023-05-17T11:29:09;12.93;;;5.38;;
78824;SDS011;68176;45.554;10.220;2023-05-17T11:31:37;6.10;;;5.10;;
78824;SDS011;68176;45.554;10.220;2023-05-17T11:34:08;10.23;;;6.87;;
78824;SDS011;68176;45.554;10.220;2023-05-17T11:36:50;33.10;;;4.80;;
78824;SDS011;68176;45.554;10.220;2023-05-17T11:39:21;9.73;;;7.47;;
78824;SDS011;68176;45.554;10.220;2023-05-17T11:41:50;9.93;;;6.73;;
78824;SDS011;68176;45.554;10.220;2023-05-17T11:46:59;8.55;;;6.45;;
78824;SDS011;68176;45.554;10.220;2023-05-17T11:49:29;8.57;;;6.70;;
78824;SDS011;68176;45.554;10.220;2023-05-17T11:51:57;7.30;;;5.55;;
78824;SDS011;68176;45.554;10.220;2023-05-17T11:54:23;8.80;;;5.50;;
78824;SDS011;68176;45.554;10.220;2023-05-17T11:56:52;14.30;;;8.38;;
78824;SDS011;68176;45.554;10.220;2023-05-17T11:59:22;12.52;;;7.32;;
78824;SDS011;68176;45.554;10.220;2023-05-17T12:01:52;12.27;;;8.23;;
78824;SDS011;68176;45.554;10.220;2023-05-17T12:04:26;12.10;;;7.13;;
78824;SDS011;68176;45.554;10.220;2023-05-17T12:06:53;7.72;;;5.55;;
78824;SDS011;68176;45.554;10.220;2023-05-17T12:09:22;7.13;;;6.18;;
78824;SDS011;68176;45.554;10.220;2023-05-17T12:11:52;8.32;;;6.80;;
78824;SDS011;68176;45.554;10.220;2023-05-17T12:14:22;11.05;;;6.97;;
78824;SDS011;68176;45.554;10.220;2023-05-17T12:16:53;8.38;;;6.32;;
78824;SDS011;68176;45.554;10.220;2023-05-17T12:19:22;7.43;;;5.97;;
78824;SDS011;68176;45.554;10.220;2023-05-17T12:24:25;6.80;;;5.90;;
78824;SDS011;68176;45.554;10.220;2023-05-17T12:27:01;7.22;;;4.78;;
78824;SDS011;68176;45.554;10.220;2023-05-17T12:29:28;3.90;;;3.00;;
78824;SDS011;68176;45.554;10.220;2023-05-17T12:31:55;8.15;;;5.90;;
78824;SDS011;68176;45.554;10.220;2023-05-17T12:34:25;9.07;;;7.32;;
78824;SDS011;68176;45.554;10.220;2023-05-17T12:36:55;9.75;;;5.65;;
78824;SDS011;68176;45.554;10.220;2023-05-17T12:39:25;10.02;;;6.82;;
78824;SDS011;68176;45.554;10.220;2023-05-17T12:41:55;8.98;;;7.15;;
78824;SDS011;68176;45.554;10.220;2023-05-17T12:44:25;9.90;;;7.15;;
78824;SDS011;68176;45.554;10.220;2023-05-17T12:46:55;9.90;;;7.22;;
78824;SDS011;68176;45.554;10.220;2023-05-17T12:49:25;9.10;;;6.97;;
78824;SDS011;68176;45.554;10.220;2023-05-17T12:51:55;13.23;;;7.97;;
78824;SDS011;68176;45.554;10.220;2023-05-17T12:54:29;14.90;;;5.70;;
78824;SDS011;68176;45.554;10.220;2023-05-17T12:59:25;14.48;;;6.88;;
78824;SDS011;68176;45.554;10.220;2023-05-17T13:01:56;11.50;;;7.00;;
78824;SDS011;68176;45.554;10.220;2023-05-17T13:04:30;13.00;;;7.30;;
78824;SDS011;68176;45.554;10.220;2023-05-17T13:06:57;5.80;;;4.30;;
78824;SDS011;68176;45.554;10.220;2023-05-17T13:09:26;7.85;;;4.75;;
78824;SDS011;68176;45.554;10.220;2023-05-17T13:11:56;7.88;;;5.75;;
78824;SDS011;68176;45.554;10.220;2023-05-17T13:14:32;7.83;;;6.00;;
78824;SDS011;68176;45.554;10.220;2023-05-17T13:17:00;6.70;;;4.30;;
78824;SDS011;68176;45.554;10.220;2023-05-17T13:21:55;10.27;;;8.55;;
78824;SDS011;68176;45.554;10.220;2023-05-17T13:24:25;11.60;;;7.05;;
78824;SDS011;68176;45.554;10.220;2023-05-17T13:26:55;12.23;;;8.55;;
78824;SDS011;68176;45.554;10.220;2023-05-17T13:29:26;10.57;;;8.98;;
78824;SDS011;68176;45.554;10.220;2023-05-17T13:31:55;10.75;;;7.57;;
78824;SDS011;68176;45.554;10.220;2023-05-17T13:34:25;9.85;;;7.65;;
78824;SDS011;68176;45.554;10.220;2023-05-17T13:36:55;10.77;;;8.73;;
78824;SDS011;68176;45.554;10.220;2023-05-17T13:39:25;11.18;;;6.53;;
78824;SDS011;68176;45.554;10.220;2023-05-17T13:41:55;9.85;;;7.47;;
78824;SDS011;68176;45.554;10.220;2023-05-17T13:44:25;11.93;;;8.45;;
78824;SDS011;68176;45.554;10.220;2023-05-17T13:46:55;9.90;;;8.90;;
78824;SDS011;68176;45.554;10.220;2023-05-17T13:49:25;11.18;;;7.72;;
78824;SDS011;68176;45.554;10.220;2023-05-17T13:51:56;5.10;;;4.10;;
78824;SDS011;68176;45.554;10.220;2023-05-17T13:54:25;11.57;;;8.13;;
78824;SDS011;68176;45.554;10.220;2023-05-17T13:57:02;8.65;;;7.72;;
78824;SDS011;68176;45.554;10.220;2023-05-17T13:59:29;7.30;;;5.30;;
78824;SDS011;68176;45.554;10.220;2023-05-17T14:02:07;15.25;;;9.02;;
78824;SDS011;68176;45.554;10.220;2023-05-17T14:04:33;8.20;;;4.20;;
78824;SDS011;68176;45.554;10.220;2023-05-17T14:07:04;9.93;;;7.85;;
78824;SDS011;68176;45.554;10.220;2023-05-17T14:09:31;10.88;;;8.27;;
78824;SDS011;68176;45.554;10.220;2023-05-17T14:12:04;8.00;;;7.20;;
78824;SDS011;68176;45.554;10.220;2023-05-17T14:14:33;11.63;;;6.90;;
78824;SDS011;68176;45.554;10.220;2023-05-17T14:17:01;8.65;;;6.35;;
78824;SDS011;68176;45.554;10.220;2023-05-17T14:19:31;11.63;;;8.55;;
78824;SDS011;68176;45.554;10.220;2023-05-17T14:22:47;8.73;;;7.90;;
78824;SDS011;68176;45.554;10.220;2023-05-17T14:25:13;8.25;;;5.40;;
78824;SDS011;68176;45.554;10.220;2023-05-17T14:27:41;10.65;;;7.75;;
78824;SDS011;68176;45.554;10.220;2023-05-17T14:30:11;9.10;;;7.40;;
78824;SDS011;68176;45.554;10.220;2023-05-17T14:32:40;9.75;;;6.70;;
78824;SDS011;68176;45.554;10.220;2023-05-17T14:35:10;13.27;;;8.05;;
78824;SDS011;68176;45.554;10.220;2023-05-17T14:37:42;7.47;;;6.63;;
78824;SDS011;68176;45.554;10.220;2023-05-17T14:40:10;8.40;;;7.50;;
78824;SDS011;68176;45.554;10.220;2023-05-17T14:42:55;6.73;;;5.80;;
78824;SDS011;68176;45.554;10.220;2023-05-17T14:45:26;5.87;;;4.97;;
78824;SDS011;68176;45.554;10.220;2023-05-17T14:48:21;5.20;;;4.65;;
78824;SDS011;68176;45.554;10.220;2023-05-17T14:50:50;6.97;;;5.30;;
78824;SDS011;68176;45.554;10.220;2023-05-17T14:53:29;5.65;;;4.13;;
78824;SDS011;68176;45.554;10.220;2023-05-17T14:56:05;7.30;;;4.03;;
78824;SDS011;68176;45.554;10.220;2023-05-17T14:58:47;5.20;;;4.47;;
78824;SDS011;68176;45.554;10.220;2023-05-17T15:05:13;3.90;;;2.55;;
78824;SDS011;68176;45.554;10.220;2023-05-17T15:07:47;5.20;;;2.85;;
78824;SDS011;68176;45.554;10.220;2023-05-17T15:10:18;3.90;;;2.70;;
78824;SDS011;68176;45.554;10.220;2023-05-17T15:12:54;6.55;;;2.92;;
78824;SDS011;68176;45.554;10.220;2023-05-17T15:15:32;5.47;;;2.63;;
78824;SDS011;68176;45.554;10.220;2023-05-17T15:18:00;3.00;;;2.40;;
78824;SDS011;68176;45.554;10.220;2023-05-17T15:20:28;3.40;;;1.85;;
78824;SDS011;68176;45.554;10.220;2023-05-17T15:22:55;7.05;;;5.40;;
78824;SDS011;68176;45.554;10.220;2023-05-17T15:25:26;5.43;;;4.75;;
78824;SDS011;68176;45.554;10.220;2023-05-17T15:27:56;7.53;;;4.75;;
78824;SDS011;68176;45.554;10.220;2023-05-17T15:30:26;6.38;;;4.82;;
78824;SDS011;68176;45.554;10.220;2023-05-17T15:32:56;8.18;;;7.18;;
78824;SDS011;68176;45.554;10.220;2023-05-17T15:35:26;9.23;;;6.53;;
78824;SDS011;68176;45.554;10.220;2023-05-17T15:37:56;10.63;;;7.05;;
78824;SDS011;68176;45.554;10.220;2023-05-17T15:40:26;9.40;;;6.32;;
78824;SDS011;68176;45.554;10.220;2023-05-17T15:45:26;10.85;;;7.28;;
78824;SDS011;68176;45.554;10.220;2023-05-17T15:47:56;9.18;;;7.97;;
78824;SDS011;68176;45.554;10.220;2023-05-17T15:50:26;12.43;;;6.97;;
78824;SDS011;68176;45.554;10.220;2023-05-17T15:52:56;7.60;;;6.53;;
78824;SDS011;68176;45.554;10.220;2023-05-17T15:55:26;8.80;;;6.50;;
78824;SDS011;68176;45.554;10.220;2023-05-17T16:02:56;12.52;;;6.07;;
78824;SDS011;68176;45.554;10.220;2023-05-17T16:05:26;8.90;;;6.90;;
78824;SDS011;68176;45.554;10.220;2023-05-17T16:07:56;9.38;;;6.80;;
78824;SDS011;68176;45.554;10.220;2023-05-17T16:10:27;8.80;;;6.25;;
78824;SDS011;68176;45.554;10.220;2023-05-17T16:12:56;7.40;;;6.18;;
78824;SDS011;68176;45.554;10.220;2023-05-17T16:15:26;7.72;;;5.95;;
78824;SDS011;68176;45.554;10.220;2023-05-17T16:17:56;8.13;;;6.85;;
78824;SDS011;68176;45.554;10.220;2023-05-17T16:20:26;8.40;;;6.57;;
78824;SDS011;68176;45.554;10.220;2023-05-17T16:22:56;7.72;;;5.40;;
78824;SDS011;68176;45.554;10.220;2023-05-17T16:25:26;6.65;;;5.13;;
78824;SDS011;68176;45.554;10.220;2023-05-17T16:27:56;5.90;;;5.15;;
78824;SDS011;68176;45.554;10.220;2023-05-17T16:30:27;10.27;;;5.78;;
78824;SDS011;68176;45.554;10.220;2023-05-17T16:32:56;6.68;;;4.82;;
78824;SDS011;68176;45.554;10.220;2023-05-17T16:35:26;11.68;;;5.05;;
78824;SDS011;68176;45.554;10.220;2023-05-17T16:37:56;7.07;;;4.93;;
78824;SDS011;68176;45.554;10.220;2023-05-17T16:40:26;8.07;;;5.10;;
78824;SDS011;68176;45.554;10.220;2023-05-17T16:42:56;6.38;;;4.03;;
78824;SDS011;68176;45.554;10.220;2023-05-17T16:45:26;5.13;;;3.35;;
78824;SDS011;68176;45.554;10.220;2023-05-17T16:47:56;5.60;;;5.03;;
78824;SDS011;68176;45.554;10.220;2023-05-17T16:50:27;7.28;;;5.60;;
78824;SDS011;68176;45.554;10.220;2023-05-17T16:55:26;5.68;;;4.65;;
78824;SDS011;68176;45.554;10.220;2023-05-17T16:57:56;6.20;;;4.45;;
78824;SDS011;68176;45.554;10.220;2023-05-17T17:00:27;6.30;;;3.70;;
78824;SDS011;68176;45.554;10.220;2023-05-17T17:02:57;6.57;;;4.53;;
78824;SDS011;68176;45.554;10.220;2023-05-17T17:05:26;5.00;;;4.18;;
78824;SDS011;68176;45.554;10.220;2023-05-17T17:07:56;6.50;;;4.72;;
78824;SDS011;68176;45.554;10.220;2023-05-17T17:10:26;7.15;;;4.97;;
78824;SDS011;68176;45.554;10.220;2023-05-17T17:12:57;12.15;;;4.78;;
78824;SDS011;68176;45.554;10.220;2023-05-17T17:15:27;10.55;;;5.00;;
78824;SDS011;68176;45.554;10.220;2023-05-17T17:17:57;5.97;;;4.50;;
78824;SDS011;68176;45.554;10.220;2023-05-17T17:20:27;7.07;;;5.60;;
78824;SDS011;68176;45.554;10.220;2023-05-17T17:22:57;7.63;;;4.53;;
78824;SDS011;68176;45.554;10.220;2023-05-17T17:27:57;5.13;;;3.63;;
78824;SDS011;68176;45.554;10.220;2023-05-17T17:30:27;9.25;;;5.70;;
78824;SDS011;68176;45.554;10.220;2023-05-17T17:32:57;6.97;;;4.65;;
78824;SDS011;68176;45.554;10.220;2023-05-17T17:35:27;5.68;;;3.97;;
78824;SDS011;68176;45.554;10.220;2023-05-17T17:37:57;5.25;;;3.30;;
78824;SDS011;68176;45.554;10.220;2023-05-17T17:40:27;4.57;;;3.33;;
78824;SDS011;68176;45.554;10.220;2023-05-17T17:42:57;5.45;;;3.53;;
78824;SDS011;68176;45.554;10.220;2023-05-17T17:45:27;5.38;;;2.78;;
78824;SDS011;68176;45.554;10.220;2023-05-17T17:50:27;6.72;;;2.53;;
78824;SDS011;68176;45.554;10.220;2023-05-17T17:52:57;4.50;;;2.35;;
78824;SDS011;68176;45.554;10.220;2023-05-17T17:55:38;2.53;;;1.73;;
78824;SDS011;68176;45.554;10.220;2023-05-17T17:58:09;3.47;;;2.03;;
78824;SDS011;68176;45.554;10.220;2023-05-17T18:00:39;9.00;;;2.27;;
78824;SDS011;68176;45.554;10.220;2023-05-17T18:03:10;3.70;;;1.70;;
78824;SDS011;68176;45.554;10.220;2023-05-17T18:05:36;1.95;;;1.15;;
78824;SDS011;68176;45.554;10.220;2023-05-17T18:08:06;2.45;;;1.70;;
78824;SDS011;68176;45.554;10.220;2023-05-17T18:10:33;2.90;;;1.73;;
78824;SDS011;68176;45.554;10.220;2023-05-17T18:13:04;3.30;;;1.98;;
78824;SDS011;68176;45.554;10.220;2023-05-17T18:15:33;4.03;;;2.50;;
78824;SDS011;68176;45.554;10.220;2023-05-17T18:18:03;3.63;;;1.38;;
78824;SDS011;68176;45.554;10.220;2023-05-17T18:20:33;3.92;;;1.48;;
78824;SDS011;68176;45.554;10.220;2023-05-17T18:23:06;5.53;;;1.98;;
78824;SDS011;68176;45.554;10.220;2023-05-17T18:25:34;2.53;;;1.55;;
78824;SDS011;68176;45.554;10.220;2023-05-17T18:28:10;3.55;;;1.85;;
78824;SDS011;68176;45.554;10.220;2023-05-17T18:30:38;1.60;;;1.00;;
78824;SDS011;68176;45.554;10.220;2023-05-17T18:33:04;1.35;;;0.70;;
78824;SDS011;68176;45.554;10.220;2023-05-17T18:38:12;4.90;;;1.23;;
78824;SDS011;68176;45.554;10.220;2023-05-17T18:40:41;2.20;;;0.90;;
78824;SDS011;68176;45.554;10.220;2023-05-17T18:43:06;4.15;;;0.90;;
78824;SDS011;68176;45.554;10.220;2023-05-17T18:45:36;3.03;;;1.52;;
78824;SDS011;68176;45.554;10.220;2023-05-17T18:50:36;3.35;;;1.38;;
78824;SDS011;68176;45.554;10.220;2023-05-17T18:55:36;2.65;;;0.93;;
78824;SDS011;68176;45.554;10.220;2023-05-17T19:00:36;2.47;;;1.25;;
78824;SDS011;68176;45.554;10.220;2023-05-17T19:03:12;1.95;;;0.70;;
78824;SDS011;68176;45.554;10.220;2023-05-17T19:05:38;1.00;;;0.20;;
78824;SDS011;68176;45.554;10.220;2023-05-17T19:10:36;1.85;;;1.27;;
78824;SDS011;68176;45.554;10.220;2023-05-17T19:13:06;2.28;;;1.00;;
78824;SDS011;68176;45.554;10.220;2023-05-17T19:15:36;1.90;;;0.95;;
78824;SDS011;68176;45.554;10.220;2023-05-17T19:18:06;4.82;;;1.92;;
78824;SDS011;68176;45.554;10.220;2023-05-17T19:20:36;1.95;;;1.15;;
78824;SDS011;68176;45.554;10.220;2023-05-17T19:23:06;2.00;;;0.98;;
78824;SDS011;68176;45.554;10.220;2023-05-17T19:25:36;2.08;;;1.23;;
78824;SDS011;68176;45.554;10.220;2023-05-17T19:28:06;4.25;;;1.02;;
78824;SDS011;68176;45.554;10.220;2023-05-17T19:30:36;2.25;;;0.93;;
78824;SDS011;68176;45.554;10.220;2023-05-17T19:33:06;3.13;;;1.60;;
78824;SDS011;68176;45.554;10.220;2023-05-17T19:35:36;1.90;;;0.80;;
78824;SDS011;68176;45.554;10.220;2023-05-17T19:38:06;1.73;;;1.10;;
78824;SDS011;68176;45.554;10.220;2023-05-17T19:40:36;2.30;;;0.95;;
78824;SDS011;68176;45.554;10.220;2023-05-17T19:43:24;2.10;;;0.97;;
78824;SDS011;68176;45.554;10.220;2023-05-17T19:45:51;1.25;;;0.55;;
78824;SDS011;68176;45.554;10.220;2023-05-17T19:48:16;4.20;;;0.90;;
78824;SDS011;68176;45.554;10.220;2023-05-17T19:50:49;2.40;;;1.58;;
78824;SDS011;68176;45.554;10.220;2023-05-17T19:53:18;1.80;;;0.80;;
78824;SDS011;68176;45.554;10.220;2023-05-17T19:55:49;2.85;;;1.23;;
78824;SDS011;68176;45.554;10.220;2023-05-17T19:58:21;2.40;;;1.30;;
78824;SDS011;68176;45.554;10.220;2023-05-17T20:00:55;1.40;;;0.60;;
78824;SDS011;68176;45.554;10.220;2023-05-17T20:03:43;2.85;;;0.82;;
78824;SDS011;68176;45.554;10.220;2023-05-17T20:06:17;5.93;;;1.10;;
78824;SDS011;68176;45.554;10.220;2023-05-17T20:08:43;2.10;;;0.90;;
78824;SDS011;68176;45.554;10.220;2023-05-17T20:11:09;2.25;;;0.80;;
78824;SDS011;68176;45.554;10.220;2023-05-17T20:13:56;2.22;;;0.88;;
78824;SDS011;68176;45.554;10.220;2023-05-17T20:18:54;3.30;;;1.23;;
78824;SDS011;68176;45.554;10.220;2023-05-17T20:21:33;2.38;;;1.17;;
78824;SDS011;68176;45.554;10.220;2023-05-17T20:24:01;2.08;;;0.88;;
78824;SDS011;68176;45.554;10.220;2023-05-17T20:26:27;1.95;;;0.70;;
78824;SDS011;68176;45.554;10.220;2023-05-17T20:28:55;1.45;;;0.70;;
78824;SDS011;68176;45.554;10.220;2023-05-17T20:31:37;2.22;;;1.50;;
78824;SDS011;68176;45.554;10.220;2023-05-17T20:34:08;2.20;;;0.47;;
78824;SDS011;68176;45.554;10.220;2023-05-17T20:36:55;4.45;;;1.42;;
78824;SDS011;68176;45.554;10.220;2023-05-17T20:39:26;1.75;;;0.95;;
78824;SDS011;68176;45.554;10.220;2023-05-17T20:42:05;1.50;;;1.10;;
78824;SDS011;68176;45.554;10.220;2023-05-17T20:44:34;2.30;;;0.75;;
78824;SDS011;68176;45.554;10.220;2023-05-17T20:46:59;1.60;;;0.80;;
78824;SDS011;68176;45.554;10.220;2023-05-17T20:49:30;0.40;;;0.30;;
78824;SDS011;68176;45.554;10.220;2023-05-17T20:52:04;3.10;;;0.95;;
78824;SDS011;68176;45.554;10.220;2023-05-17T20:54:30;2.85;;;1.30;;
78824;SDS011;68176;45.554;10.220;2023-05-17T20:56:58;1.42;;;0.63;;
78824;SDS011;68176;45.554;10.220;2023-05-17T20:59:28;6.00;;;1.70;;
78824;SDS011;68176;45.554;10.220;2023-05-17T21:02:09;2.30;;;0.90;;
78824;SDS011;68176;45.554;10.220;2023-05-17T21:04:37;1.95;;;1.15;;
78824;SDS011;68176;45.554;10.220;2023-05-17T21:07:05;1.95;;;0.25;;
78824;SDS011;68176;45.554;10.220;2023-05-17T21:12:03;2.30;;;1.25;;
78824;SDS011;68176;45.554;10.220;2023-05-17T21:14:36;3.50;;;1.80;;
78824;SDS011;68176;45.554;10.220;2023-05-17T21:17:06;1.50;;;0.80;;
78824;SDS011;68176;45.554;10.220;2023-05-17T21:19:33;1.40;;;0.40;;
78824;SDS011;68176;45.554;10.220;2023-05-17T21:22:04;2.30;;;1.05;;
78824;SDS011;68176;45.554;10.220;2023-05-17T21:29:42;1.83;;;1.45;;
78824;SDS011;68176;45.554;10.220;2023-05-17T21:32:16;1.95;;;1.23;;
78824;SDS011;68176;45.554;10.220;2023-05-17T21:34:45;3.00;;;0.93;;
78824;SDS011;68176;45.554;10.220;2023-05-17T21:37:18;2.45;;;1.15;;
78824;SDS011;68176;45.554;10.220;2023-05-17T21:39:49;1.40;;;0.70;;
78824;SDS011;68176;45.554;10.220;2023-05-17T21:42:18;0.95;;;0.45;;
78824;SDS011;68176;45.554;10.220;2023-05-17T21:44:54;2.58;;;1.27;;
78824;SDS011;68176;45.554;10.220;2023-05-17T21:47:28;1.80;;;0.77;;
78824;SDS011;68176;45.554;10.220;2023-05-17T21:49:54;0.80;;;0.30;;
78824;SDS011;68176;45.554;10.220;2023-05-17T21:52:22;2.15;;;0.85;;
78824;SDS011;68176;45.554;10.220;2023-05-17T21:54:55;2.00;;;1.33;;
78824;SDS011;68176;45.554;10.220;2023-05-17T21:57:27;2.00;;;1.10;;
78824;SDS011;68176;45.554;10.220;2023-05-17T21:59:54;1.60;;;0.80;;
78824;SDS011;68176;45.554;10.220;2023-05-17T22:02:25;1.95;;;0.68;;
78824;SDS011;68176;45.554;10.220;2023-05-17T22:04:52;1.63;;;0.93;;
78824;SDS011;68176;45.554;10.220;2023-05-17T22:07:22;2.97;;;1.25;;
78824;SDS011;68176;45.554;10.220;2023-05-17T22:10:02;1.90;;;0.90;;
78824;SDS011;68176;45.554;10.220;2023-05-17T22:12:34;2.25;;;0.90;;
78824;SDS011;68176;45.554;10.220;2023-05-17T22:15:08;2.90;;;1.08;;
78824;SDS011;68176;45.554;10.220;2023-05-17T22:17:54;1.80;;;0.85;;
78824;SDS011;68176;45.554;10.220;2023-05-17T22:20:27;2.17;;;1.05;;
78824;SDS011;68176;45.554;10.220;2023-05-17T22:22:53;0.60;;;0.40;;
78824;SDS011;68176;45.554;10.220;2023-05-17T22:25:24;2.17;;;0.90;;
78824;SDS011;68176;45.554;10.220;2023-05-17T22:27:55;2.30;;;1.60;;
78824;SDS011;68176;45.554;10.220;2023-05-17T22:30:28;2.30;;;1.20;;
78824;SDS011;68176;45.554;10.220;2023-05-17T22:33:24;2.45;;;1.10;;
78824;SDS011;68176;45.554;10.220;2023-05-17T22:35:48;2.55;;;1.10;;
78824;SDS011;68176;45.554;10.220;2023-05-17T22:38:17;1.50;;;0.40;;
78824;SDS011;68176;45.554;10.220;2023-05-17T22:40:48;2.83;;;1.10;;
78824;SDS011;68176;45.554;10.220;2023-05-17T22:43:16;2.90;;;1.10;;
78824;SDS011;68176;45.554;10.220;2023-05-17T22:45:52;1.40;;;0.85;;
78824;SDS011;68176;45.554;10.220;2023-05-17T22:48:17;2.30;;;0.75;;
78824;SDS011;68176;45.554;10.220;2023-05-17T22:50:44;2.85;;;1.25;;
78824;SDS011;68176;45.554;10.220;2023-05-17T22:53:13;3.25;;;1.02;;
78824;SDS011;68176;45.554;10.220;2023-05-17T22:55:46;1.52;;;0.80;;
78824;SDS011;68176;45.554;10.220;2023-05-17T22:58:18;1.50;;;0.75;;
78824;SDS011;68176;45.554;10.220;2023-05-17T23:00:44;2.00;;;0.85;;
78824;SDS011;68176;45.554;10.220;2023-05-17T23:03:13;2.30;;;1.17;;
78824;SDS011;68176;45.554;10.220;2023-05-17T23:05:47;2.17;;;0.95;;
78824;SDS011;68176;45.554;10.220;2023-05-17T23:08:16;2.42;;;0.85;;
78824;SDS011;68176;45.554;10.220;2023-05-17T23:10:43;1.45;;;0.95;;
78824;SDS011;68176;45.554;10.220;2023-05-17T23:13:13;1.75;;;1.25;;
78824;SDS011;68176;45.554;10.220;2023-05-17T23:15:46;2.53;;;1.15;;
78824;SDS011;68176;45.554;10.220;2023-05-17T23:18:17;2.08;;;1.00;;
78824;SDS011;68176;45.554;10.220;2023-05-17T23:20:44;2.03;;;1.13;;
78824;SDS011;68176;45.554;10.220;2023-05-17T23:23:14;2.38;;;1.05;;
78824;SDS011;68176;45.554;10.220;2023-05-17T23:25:46;0.95;;;0.45;;
78824;SDS011;68176;45.554;10.220;2023-05-17T23:28:14;1.33;;;0.88;;
78824;SDS011;68176;45.554;10.220;2023-05-17T23:30:44;1.92;;;1.17;;
78824;SDS011;68176;45.554;10.220;2023-05-17T23:33:17;1.45;;;0.90;;
78824;SDS011;68176;45.554;10.220;2023-05-17T23:35:44;2.22;;;0.82;;
78824;SDS011;68176;45.554;10.220;2023-05-17T23:38:13;2.53;;;1.17;;
78824;SDS011;68176;45.554;10.220;2023-05-17T23:40:44;1.05;;;0.60;;
78824;SDS011;68176;45.554;10.220;2023-05-17T23:43:14;1.42;;;0.80;;
78824;SDS011;68176;45.554;10.220;2023-05-17T23:45:47;2.63;;;1.52;;
78824;SDS011;68176;45.554;10.220;2023-05-17T23:48:14;2.03;;;1.02;;
78824;SDS011;68176;45.554;10.220;2023-05-17T23:51:05;1.20;;;0.93;;
78824;SDS011;68176;45.554;10.220;2023-05-17T23:53:36;2.60;;;0.55;;
78824;SDS011;68176;45.554;10.220;2023-05-17T23:56:24;2.28;;;1.15;;
78824;SDS011;68176;45.554;10.220;2023-05-17T23:58:55;2.03;;;1.08;;
